West Amana, Iowa
Current Conditions -  °F | °C
As of 4:52 PM on Friday 19 Dec 2014 (Local Time) from KCID Reporting Station
Overcast Overcast  
Wind Chill: 23°   Ceiling: 4600
Heat Index: 29°   Visibility: 9mi
Dew Point: 22°   Wind: 6mph
Humidity: 75%   Direction: 160°SSE
Pressure: 30.25"   Gusts: NA
Location:  41.8244°N, 91.8792°W
Report Text: KCID 192252Z 16005KT 9SM OVC046 M02/M06 A3025 RMK AO2 SLP255 T10171056 $
Loading
Personal Weather Stations






























Interactive Weather Map New forecast layout! Learn more

10-Day Weather Forecast

Advertisements
Track Severe Weather on mobile